sensor_id;sensor_type;location;lat;lon;timestamp;P1;durP1;ratioP1;P2;durP2;ratioP2
10509;SDS011;5303;53.266;10.410;2024-01-30T00:00:16;10.73;;;6.13;;
10509;SDS011;5303;53.266;10.410;2024-01-30T00:02:41;9.50;;;6.60;;
10509;SDS011;5303;53.266;10.410;2024-01-30T00:05:08;8.07;;;6.43;;
10509;SDS011;5303;53.266;10.410;2024-01-30T00:07:33;8.77;;;7.13;;
10509;SDS011;5303;53.266;10.410;2024-01-30T00:09:59;8.70;;;6.20;;
10509;SDS011;5303;53.266;10.410;2024-01-30T00:12:24;9.83;;;6.37;;
10509;SDS011;5303;53.266;10.410;2024-01-30T00:14:50;8.23;;;6.13;;
10509;SDS011;5303;53.266;10.410;2024-01-30T00:17:15;9.13;;;6.93;;
10509;SDS011;5303;53.266;10.410;2024-01-30T00:19:40;8.97;;;7.03;;
10509;SDS011;5303;53.266;10.410;2024-01-30T00:22:05;9.70;;;6.33;;
10509;SDS011;5303;53.266;10.410;2024-01-30T00:24:31;12.00;;;6.93;;
10509;SDS011;5303;53.266;10.410;2024-01-30T00:26:56;10.63;;;7.13;;
10509;SDS011;5303;53.266;10.410;2024-01-30T00:29:21;8.80;;;6.33;;
10509;SDS011;5303;53.266;10.410;2024-01-30T00:31:47;8.23;;;6.50;;
10509;SDS011;5303;53.266;10.410;2024-01-30T00:34:16;11.20;;;7.00;;
10509;SDS011;5303;53.266;10.410;2024-01-30T00:36:41;8.40;;;6.47;;
10509;SDS011;5303;53.266;10.410;2024-01-30T00:39:06;8.83;;;6.83;;
10509;SDS011;5303;53.266;10.410;2024-01-30T00:41:34;10.83;;;6.97;;
10509;SDS011;5303;53.266;10.410;2024-01-30T00:43:59;9.23;;;6.73;;
10509;SDS011;5303;53.266;10.410;2024-01-30T00:46:25;9.03;;;6.37;;
10509;SDS011;5303;53.266;10.410;2024-01-30T00:48:50;8.60;;;6.50;;
10509;SDS011;5303;53.266;10.410;2024-01-30T00:51:15;11.37;;;7.07;;
10509;SDS011;5303;53.266;10.410;2024-01-30T00:53:40;9.63;;;6.57;;
10509;SDS011;5303;53.266;10.410;2024-01-30T00:56:06;9.13;;;7.00;;
10509;SDS011;5303;53.266;10.410;2024-01-30T00:58:32;9.50;;;6.93;;
10509;SDS011;5303;53.266;10.410;2024-01-30T01:00:58;9.23;;;6.70;;
10509;SDS011;5303;53.266;10.410;2024-01-30T01:03:23;11.50;;;6.83;;
10509;SDS011;5303;53.266;10.410;2024-01-30T01:05:48;9.53;;;7.37;;
10509;SDS011;5303;53.266;10.410;2024-01-30T01:08:13;8.57;;;6.87;;
10509;SDS011;5303;53.266;10.410;2024-01-30T01:10:40;9.33;;;6.60;;
10509;SDS011;5303;53.266;10.410;2024-01-30T01:13:05;10.37;;;7.17;;
10509;SDS011;5303;53.266;10.410;2024-01-30T01:15:30;9.23;;;7.07;;
10509;SDS011;5303;53.266;10.410;2024-01-30T01:17:55;8.70;;;6.70;;
10509;SDS011;5303;53.266;10.410;2024-01-30T01:20:21;10.77;;;6.90;;
10509;SDS011;5303;53.266;10.410;2024-01-30T01:22:46;9.57;;;7.10;;
10509;SDS011;5303;53.266;10.410;2024-01-30T01:25:11;9.80;;;7.10;;
10509;SDS011;5303;53.266;10.410;2024-01-30T01:27:37;9.73;;;7.70;;
10509;SDS011;5303;53.266;10.410;2024-01-30T01:30:07;9.93;;;7.03;;
10509;SDS011;5303;53.266;10.410;2024-01-30T01:32:34;10.90;;;7.17;;
10509;SDS011;5303;53.266;10.410;2024-01-30T01:34:59;9.90;;;7.23;;
10509;SDS011;5303;53.266;10.410;2024-01-30T01:37:25;8.93;;;7.17;;
10509;SDS011;5303;53.266;10.410;2024-01-30T01:39:51;9.03;;;6.80;;
10509;SDS011;5303;53.266;10.410;2024-01-30T01:42:17;10.63;;;6.90;;
10509;SDS011;5303;53.266;10.410;2024-01-30T01:44:42;12.17;;;7.77;;
10509;SDS011;5303;53.266;10.410;2024-01-30T01:47:07;10.60;;;7.03;;
10509;SDS011;5303;53.266;10.410;2024-01-30T01:49:33;10.90;;;7.13;;
10509;SDS011;5303;53.266;10.410;2024-01-30T01:51:58;9.27;;;6.70;;
10509;SDS011;5303;53.266;10.410;2024-01-30T01:54:24;11.50;;;7.33;;
10509;SDS011;5303;53.266;10.410;2024-01-30T01:56:51;9.13;;;6.93;;
10509;SDS011;5303;53.266;10.410;2024-01-30T01:59:18;9.13;;;6.23;;
10509;SDS011;5303;53.266;10.410;2024-01-30T02:01:44;10.87;;;7.43;;
10509;SDS011;5303;53.266;10.410;2024-01-30T02:04:14;13.30;;;7.13;;
10509;SDS011;5303;53.266;10.410;2024-01-30T02:06:39;10.93;;;6.83;;
10509;SDS011;5303;53.266;10.410;2024-01-30T02:09:04;11.13;;;7.43;;
10509;SDS011;5303;53.266;10.410;2024-01-30T02:11:30;11.10;;;6.80;;
10509;SDS011;5303;53.266;10.410;2024-01-30T02:13:55;11.30;;;7.53;;
10509;SDS011;5303;53.266;10.410;2024-01-30T02:16:21;10.47;;;7.03;;
10509;SDS011;5303;53.266;10.410;2024-01-30T02:18:46;11.17;;;7.40;;
10509;SDS011;5303;53.266;10.410;2024-01-30T02:21:14;10.23;;;7.53;;
10509;SDS011;5303;53.266;10.410;2024-01-30T02:23:40;8.93;;;7.20;;
10509;SDS011;5303;53.266;10.410;2024-01-30T02:26:07;10.17;;;7.80;;
10509;SDS011;5303;53.266;10.410;2024-01-30T02:28:33;11.63;;;8.23;;
10509;SDS011;5303;53.266;10.410;2024-01-30T02:30:58;11.93;;;7.60;;
10509;SDS011;5303;53.266;10.410;2024-01-30T02:33:23;9.90;;;7.10;;
10509;SDS011;5303;53.266;10.410;2024-01-30T02:35:48;10.93;;;7.43;;
10509;SDS011;5303;53.266;10.410;2024-01-30T02:38:15;9.23;;;7.67;;
10509;SDS011;5303;53.266;10.410;2024-01-30T02:40:41;12.23;;;8.03;;
10509;SDS011;5303;53.266;10.410;2024-01-30T02:43:06;11.17;;;7.87;;
10509;SDS011;5303;53.266;10.410;2024-01-30T02:45:31;15.10;;;8.37;;
10509;SDS011;5303;53.266;10.410;2024-01-30T02:47:56;9.63;;;7.53;;
10509;SDS011;5303;53.266;10.410;2024-01-30T02:50:22;9.60;;;7.63;;
10509;SDS011;5303;53.266;10.410;2024-01-30T02:52:47;12.13;;;8.00;;
10509;SDS011;5303;53.266;10.410;2024-01-30T02:55:12;10.87;;;7.90;;
10509;SDS011;5303;53.266;10.410;2024-01-30T02:57:38;11.93;;;7.83;;
10509;SDS011;5303;53.266;10.410;2024-01-30T03:00:04;12.87;;;8.20;;
10509;SDS011;5303;53.266;10.410;2024-01-30T03:02:31;11.47;;;8.23;;
10509;SDS011;5303;53.266;10.410;2024-01-30T03:04:57;10.87;;;8.20;;
10509;SDS011;5303;53.266;10.410;2024-01-30T03:07:23;10.23;;;7.83;;
10509;SDS011;5303;53.266;10.410;2024-01-30T03:09:48;11.10;;;8.60;;
10509;SDS011;5303;53.266;10.410;2024-01-30T03:12:14;11.63;;;8.57;;
10509;SDS011;5303;53.266;10.410;2024-01-30T03:14:39;10.63;;;8.23;;
10509;SDS011;5303;53.266;10.410;2024-01-30T03:17:04;11.37;;;8.47;;
10509;SDS011;5303;53.266;10.410;2024-01-30T03:19:30;12.17;;;8.43;;
10509;SDS011;5303;53.266;10.410;2024-01-30T03:21:55;13.60;;;8.20;;
10509;SDS011;5303;53.266;10.410;2024-01-30T03:24:20;13.23;;;8.10;;
10509;SDS011;5303;53.266;10.410;2024-01-30T03:26:46;12.60;;;8.80;;
10509;SDS011;5303;53.266;10.410;2024-01-30T03:29:11;12.40;;;8.90;;
10509;SDS011;5303;53.266;10.410;2024-01-30T03:31:36;9.67;;;8.57;;
10509;SDS011;5303;53.266;10.410;2024-01-30T03:34:04;12.50;;;9.03;;
10509;SDS011;5303;53.266;10.410;2024-01-30T03:36:29;11.37;;;8.47;;
10509;SDS011;5303;53.266;10.410;2024-01-30T03:38:57;13.57;;;8.93;;
10509;SDS011;5303;53.266;10.410;2024-01-30T03:41:23;11.67;;;9.13;;
10509;SDS011;5303;53.266;10.410;2024-01-30T03:43:48;11.23;;;8.77;;
10509;SDS011;5303;53.266;10.410;2024-01-30T03:46:13;10.03;;;8.50;;
10509;SDS011;5303;53.266;10.410;2024-01-30T03:48:39;11.03;;;8.37;;
10509;SDS011;5303;53.266;10.410;2024-01-30T03:51:04;11.87;;;8.60;;
10509;SDS011;5303;53.266;10.410;2024-01-30T03:53:29;10.57;;;8.60;;
10509;SDS011;5303;53.266;10.410;2024-01-30T03:55:55;14.17;;;8.77;;
10509;SDS011;5303;53.266;10.410;2024-01-30T03:58:20;15.07;;;9.27;;
10509;SDS011;5303;53.266;10.410;2024-01-30T04:00:45;11.30;;;8.60;;
10509;SDS011;5303;53.266;10.410;2024-01-30T04:03:10;11.17;;;8.60;;
10509;SDS011;5303;53.266;10.410;2024-01-30T04:05:37;11.80;;;8.60;;
10509;SDS011;5303;53.266;10.410;2024-01-30T04:08:02;13.87;;;8.40;;
10509;SDS011;5303;53.266;10.410;2024-01-30T04:10:28;11.23;;;8.13;;
10509;SDS011;5303;53.266;10.410;2024-01-30T04:12:53;13.43;;;9.00;;
10509;SDS011;5303;53.266;10.410;2024-01-30T04:15:19;14.43;;;8.73;;
10509;SDS011;5303;53.266;10.410;2024-01-30T04:17:44;14.43;;;9.03;;
10509;SDS011;5303;53.266;10.410;2024-01-30T04:20:13;11.93;;;9.13;;
10509;SDS011;5303;53.266;10.410;2024-01-30T04:22:40;12.50;;;8.93;;
10509;SDS011;5303;53.266;10.410;2024-01-30T04:25:06;12.27;;;8.93;;
10509;SDS011;5303;53.266;10.410;2024-01-30T04:27:31;12.60;;;8.83;;
10509;SDS011;5303;53.266;10.410;2024-01-30T04:29:57;13.40;;;8.90;;
10509;SDS011;5303;53.266;10.410;2024-01-30T04:32:22;12.73;;;9.43;;
10509;SDS011;5303;53.266;10.410;2024-01-30T04:34:47;18.03;;;10.10;;
10509;SDS011;5303;53.266;10.410;2024-01-30T04:37:13;14.87;;;9.77;;
10509;SDS011;5303;53.266;10.410;2024-01-30T04:39:38;10.87;;;8.90;;
10509;SDS011;5303;53.266;10.410;2024-01-30T04:42:03;11.80;;;8.97;;
10509;SDS011;5303;53.266;10.410;2024-01-30T04:44:29;12.90;;;9.57;;
10509;SDS011;5303;53.266;10.410;2024-01-30T04:46:55;12.47;;;8.57;;
10509;SDS011;5303;53.266;10.410;2024-01-30T04:49:23;14.93;;;10.07;;
10509;SDS011;5303;53.266;10.410;2024-01-30T04:51:49;13.67;;;9.73;;
10509;SDS011;5303;53.266;10.410;2024-01-30T04:54:14;16.60;;;9.73;;
10509;SDS011;5303;53.266;10.410;2024-01-30T04:56:39;13.93;;;8.40;;
10509;SDS011;5303;53.266;10.410;2024-01-30T04:59:05;13.90;;;9.20;;
10509;SDS011;5303;53.266;10.410;2024-01-30T05:01:30;11.87;;;9.87;;
10509;SDS011;5303;53.266;10.410;2024-01-30T05:03:55;14.20;;;9.63;;
10509;SDS011;5303;53.266;10.410;2024-01-30T05:06:27;14.07;;;10.40;;
10509;SDS011;5303;53.266;10.410;2024-01-30T05:08:52;16.33;;;10.63;;
10509;SDS011;5303;53.266;10.410;2024-01-30T05:11:18;13.50;;;10.00;;
10509;SDS011;5303;53.266;10.410;2024-01-30T05:13:43;12.77;;;9.37;;
10509;SDS011;5303;53.266;10.410;2024-01-30T05:16:08;16.13;;;10.47;;
10509;SDS011;5303;53.266;10.410;2024-01-30T05:18:33;15.60;;;10.40;;
10509;SDS011;5303;53.266;10.410;2024-01-30T05:20:59;14.87;;;10.43;;
10509;SDS011;5303;53.266;10.410;2024-01-30T05:23:24;16.20;;;9.87;;
10509;SDS011;5303;53.266;10.410;2024-01-30T05:25:49;12.60;;;9.40;;
10509;SDS011;5303;53.266;10.410;2024-01-30T05:28:15;15.40;;;9.63;;
10509;SDS011;5303;53.266;10.410;2024-01-30T05:30:40;13.40;;;9.30;;
10509;SDS011;5303;53.266;10.410;2024-01-30T05:33:05;14.50;;;10.20;;
10509;SDS011;5303;53.266;10.410;2024-01-30T05:35:31;15.13;;;10.80;;
10509;SDS011;5303;53.266;10.410;2024-01-30T05:37:57;14.43;;;9.97;;
10509;SDS011;5303;53.266;10.410;2024-01-30T05:40:22;15.07;;;9.17;;
10509;SDS011;5303;53.266;10.410;2024-01-30T05:42:48;14.10;;;10.47;;
10509;SDS011;5303;53.266;10.410;2024-01-30T05:45:13;14.90;;;11.13;;
10509;SDS011;5303;53.266;10.410;2024-01-30T05:47:38;13.67;;;10.67;;
10509;SDS011;5303;53.266;10.410;2024-01-30T05:50:04;16.57;;;10.53;;
10509;SDS011;5303;53.266;10.410;2024-01-30T05:52:30;17.03;;;10.63;;
10509;SDS011;5303;53.266;10.410;2024-01-30T05:54:55;13.23;;;10.30;;
10509;SDS011;5303;53.266;10.410;2024-01-30T05:57:20;12.37;;;10.50;;
10509;SDS011;5303;53.266;10.410;2024-01-30T05:59:46;15.87;;;11.03;;
10509;SDS011;5303;53.266;10.410;2024-01-30T06:02:13;15.10;;;10.60;;
10509;SDS011;5303;53.266;10.410;2024-01-30T06:04:39;15.70;;;10.83;;
10509;SDS011;5303;53.266;10.410;2024-01-30T06:07:04;15.27;;;10.80;;
10509;SDS011;5303;53.266;10.410;2024-01-30T06:09:31;16.17;;;11.20;;
10509;SDS011;5303;53.266;10.410;2024-01-30T06:11:57;14.40;;;10.70;;
10509;SDS011;5303;53.266;10.410;2024-01-30T06:14:22;17.67;;;11.00;;
10509;SDS011;5303;53.266;10.410;2024-01-30T06:16:47;15.20;;;10.83;;
10509;SDS011;5303;53.266;10.410;2024-01-30T06:19:13;16.07;;;11.17;;
10509;SDS011;5303;53.266;10.410;2024-01-30T06:21:38;16.40;;;11.77;;
10509;SDS011;5303;53.266;10.410;2024-01-30T06:24:03;16.27;;;11.40;;
10509;SDS011;5303;53.266;10.410;2024-01-30T06:26:29;16.00;;;12.00;;
10509;SDS011;5303;53.266;10.410;2024-01-30T06:28:54;18.50;;;11.57;;
10509;SDS011;5303;53.266;10.410;2024-01-30T06:31:20;15.77;;;11.07;;
10509;SDS011;5303;53.266;10.410;2024-01-30T06:33:49;17.63;;;11.33;;
10509;SDS011;5303;53.266;10.410;2024-01-30T06:36:14;16.77;;;11.33;;
10509;SDS011;5303;53.266;10.410;2024-01-30T06:38:40;16.87;;;11.87;;
10509;SDS011;5303;53.266;10.410;2024-01-30T06:41:06;14.90;;;11.23;;
10509;SDS011;5303;53.266;10.410;2024-01-30T06:43:31;16.17;;;11.77;;
10509;SDS011;5303;53.266;10.410;2024-01-30T06:45:56;18.40;;;10.93;;
10509;SDS011;5303;53.266;10.410;2024-01-30T06:48:21;15.60;;;11.40;;
10509;SDS011;5303;53.266;10.410;2024-01-30T06:50:47;19.13;;;11.93;;
10509;SDS011;5303;53.266;10.410;2024-01-30T06:53:13;18.37;;;12.40;;
10509;SDS011;5303;53.266;10.410;2024-01-30T06:55:38;18.70;;;12.13;;
10509;SDS011;5303;53.266;10.410;2024-01-30T06:58:03;15.97;;;11.70;;
10509;SDS011;5303;53.266;10.410;2024-01-30T07:00:29;18.87;;;12.77;;
10509;SDS011;5303;53.266;10.410;2024-01-30T07:02:54;19.90;;;11.47;;
10509;SDS011;5303;53.266;10.410;2024-01-30T07:05:19;17.00;;;11.63;;
10509;SDS011;5303;53.266;10.410;2024-01-30T07:07:46;17.47;;;12.47;;
10509;SDS011;5303;53.266;10.410;2024-01-30T07:10:12;21.90;;;12.17;;
10509;SDS011;5303;53.266;10.410;2024-01-30T07:12:37;18.53;;;12.50;;
10509;SDS011;5303;53.266;10.410;2024-01-30T07:15:02;19.03;;;12.67;;
10509;SDS011;5303;53.266;10.410;2024-01-30T07:17:28;17.07;;;11.87;;
10509;SDS011;5303;53.266;10.410;2024-01-30T07:19:54;17.57;;;11.87;;
10509;SDS011;5303;53.266;10.410;2024-01-30T07:22:19;17.63;;;12.20;;
10509;SDS011;5303;53.266;10.410;2024-01-30T07:24:44;18.47;;;12.40;;
10509;SDS011;5303;53.266;10.410;2024-01-30T07:27:12;16.83;;;12.40;;
10509;SDS011;5303;53.266;10.410;2024-01-30T07:29:38;16.70;;;12.00;;
10509;SDS011;5303;53.266;10.410;2024-01-30T07:32:03;16.93;;;11.87;;
10509;SDS011;5303;53.266;10.410;2024-01-30T07:34:29;18.00;;;13.03;;
10509;SDS011;5303;53.266;10.410;2024-01-30T07:36:54;19.70;;;13.10;;
10509;SDS011;5303;53.266;10.410;2024-01-30T07:39:19;17.13;;;12.67;;
10509;SDS011;5303;53.266;10.410;2024-01-30T07:41:44;20.93;;;13.87;;
10509;SDS011;5303;53.266;10.410;2024-01-30T07:44:10;18.23;;;12.43;;
10509;SDS011;5303;53.266;10.410;2024-01-30T07:46:35;17.47;;;12.40;;
10509;SDS011;5303;53.266;10.410;2024-01-30T07:49:00;19.37;;;13.33;;
10509;SDS011;5303;53.266;10.410;2024-01-30T07:51:26;21.43;;;12.17;;
10509;SDS011;5303;53.266;10.410;2024-01-30T07:53:53;16.93;;;12.90;;
10509;SDS011;5303;53.266;10.410;2024-01-30T07:56:18;19.83;;;13.13;;
10509;SDS011;5303;53.266;10.410;2024-01-30T07:58:44;19.73;;;14.37;;
10509;SDS011;5303;53.266;10.410;2024-01-30T08:01:09;15.60;;;11.80;;
10509;SDS011;5303;53.266;10.410;2024-01-30T08:03:35;16.30;;;12.07;;
10509;SDS011;5303;53.266;10.410;2024-01-30T08:06:01;17.33;;;12.77;;
10509;SDS011;5303;53.266;10.410;2024-01-30T08:08:26;16.30;;;11.87;;
10509;SDS011;5303;53.266;10.410;2024-01-30T08:10:52;17.47;;;11.97;;
10509;SDS011;5303;53.266;10.410;2024-01-30T08:13:17;20.17;;;11.93;;
10509;SDS011;5303;53.266;10.410;2024-01-30T08:15:42;16.63;;;11.90;;
10509;SDS011;5303;53.266;10.410;2024-01-30T08:18:08;17.03;;;11.40;;
10509;SDS011;5303;53.266;10.410;2024-01-30T08:20:33;15.63;;;11.40;;
10509;SDS011;5303;53.266;10.410;2024-01-30T08:22:58;17.70;;;11.30;;
10509;SDS011;5303;53.266;10.410;2024-01-30T08:25:25;13.90;;;10.60;;
10509;SDS011;5303;53.266;10.410;2024-01-30T08:27:50;17.17;;;10.47;;
10509;SDS011;5303;53.266;10.410;2024-01-30T08:30:16;16.80;;;10.63;;
10509;SDS011;5303;53.266;10.410;2024-01-30T08:32:41;14.17;;;11.07;;
10509;SDS011;5303;53.266;10.410;2024-01-30T08:35:07;15.43;;;11.43;;
10509;SDS011;5303;53.266;10.410;2024-01-30T08:37:33;14.53;;;11.43;;
10509;SDS011;5303;53.266;10.410;2024-01-30T08:39:58;15.83;;;11.40;;
10509;SDS011;5303;53.266;10.410;2024-01-30T08:42:24;14.80;;;11.43;;
10509;SDS011;5303;53.266;10.410;2024-01-30T08:44:50;17.83;;;11.90;;
10509;SDS011;5303;53.266;10.410;2024-01-30T08:47:19;14.27;;;11.27;;
10509;SDS011;5303;53.266;10.410;2024-01-30T08:49:44;14.63;;;10.50;;
10509;SDS011;5303;53.266;10.410;2024-01-30T08:52:12;13.77;;;10.70;;
10509;SDS011;5303;53.266;10.410;2024-01-30T08:54:38;14.43;;;10.27;;
10509;SDS011;5303;53.266;10.410;2024-01-30T08:57:03;12.80;;;10.10;;
10509;SDS011;5303;53.266;10.410;2024-01-30T08:59:29;16.57;;;9.97;;
10509;SDS011;5303;53.266;10.410;2024-01-30T09:01:54;15.57;;;10.40;;
10509;SDS011;5303;53.266;10.410;2024-01-30T09:04:20;14.47;;;10.70;;
10509;SDS011;5303;53.266;10.410;2024-01-30T09:06:46;14.57;;;11.30;;
10509;SDS011;5303;53.266;10.410;2024-01-30T09:09:11;13.83;;;10.53;;
10509;SDS011;5303;53.266;10.410;2024-01-30T09:11:36;16.60;;;10.80;;
10509;SDS011;5303;53.266;10.410;2024-01-30T09:14:02;15.80;;;11.37;;
10509;SDS011;5303;53.266;10.410;2024-01-30T09:16:27;16.53;;;11.47;;
10509;SDS011;5303;53.266;10.410;2024-01-30T09:18:53;18.83;;;11.37;;
10509;SDS011;5303;53.266;10.410;2024-01-30T09:21:18;14.37;;;10.97;;
10509;SDS011;5303;53.266;10.410;2024-01-30T09:23:44;16.00;;;11.27;;
10509;SDS011;5303;53.266;10.410;2024-01-30T09:26:09;13.53;;;10.20;;
10509;SDS011;5303;53.266;10.410;2024-01-30T09:28:35;15.23;;;10.20;;
10509;SDS011;5303;53.266;10.410;2024-01-30T09:31:00;15.20;;;10.33;;
10509;SDS011;5303;53.266;10.410;2024-01-30T09:33:26;15.57;;;10.93;;
10509;SDS011;5303;53.266;10.410;2024-01-30T09:35:51;14.20;;;10.33;;
10509;SDS011;5303;53.266;10.410;2024-01-30T09:38:16;14.80;;;10.07;;
10509;SDS011;5303;53.266;10.410;2024-01-30T09:40:41;13.57;;;10.23;;
10509;SDS011;5303;53.266;10.410;2024-01-30T09:43:07;13.93;;;9.67;;
10509;SDS011;5303;53.266;10.410;2024-01-30T09:45:32;14.13;;;10.67;;
10509;SDS011;5303;53.266;10.410;2024-01-30T09:48:00;10.77;;;8.90;;
10509;SDS011;5303;53.266;10.410;2024-01-30T09:50:25;13.27;;;9.13;;
10509;SDS011;5303;53.266;10.410;2024-01-30T09:52:51;12.13;;;8.93;;
10509;SDS011;5303;53.266;10.410;2024-01-30T09:55:20;11.30;;;9.40;;
10509;SDS011;5303;53.266;10.410;2024-01-30T09:57:45;12.37;;;9.77;;
10509;SDS011;5303;53.266;10.410;2024-01-30T10:00:11;12.93;;;9.33;;
10509;SDS011;5303;53.266;10.410;2024-01-30T10:02:38;14.83;;;9.77;;
10509;SDS011;5303;53.266;10.410;2024-01-30T10:05:03;15.17;;;9.57;;
10509;SDS011;5303;53.266;10.410;2024-01-30T10:07:29;13.87;;;9.43;;
10509;SDS011;5303;53.266;10.410;2024-01-30T10:09:55;15.37;;;9.37;;
10509;SDS011;5303;53.266;10.410;2024-01-30T10:12:21;13.23;;;8.90;;
10509;SDS011;5303;53.266;10.410;2024-01-30T10:14:47;13.33;;;9.40;;
10509;SDS011;5303;53.266;10.410;2024-01-30T10:17:12;11.13;;;8.63;;
10509;SDS011;5303;53.266;10.410;2024-01-30T10:19:38;12.27;;;9.37;;
10509;SDS011;5303;53.266;10.410;2024-01-30T10:22:05;13.43;;;8.83;;
10509;SDS011;5303;53.266;10.410;2024-01-30T10:24:30;12.83;;;8.93;;
10509;SDS011;5303;53.266;10.410;2024-01-30T10:26:56;10.07;;;8.70;;
10509;SDS011;5303;53.266;10.410;2024-01-30T10:29:21;11.27;;;8.40;;
10509;SDS011;5303;53.266;10.410;2024-01-30T10:31:57;12.03;;;9.60;;
10509;SDS011;5303;53.266;10.410;2024-01-30T10:34:23;13.07;;;9.10;;
10509;SDS011;5303;53.266;10.410;2024-01-30T10:36:49;13.63;;;8.60;;
10509;SDS011;5303;53.266;10.410;2024-01-30T10:39:15;11.23;;;8.50;;
10509;SDS011;5303;53.266;10.410;2024-01-30T10:41:43;10.80;;;9.10;;
10509;SDS011;5303;53.266;10.410;2024-01-30T10:44:09;11.93;;;8.97;;
10509;SDS011;5303;53.266;10.410;2024-01-30T10:46:35;10.77;;;8.40;;
10509;SDS011;5303;53.266;10.410;2024-01-30T10:49:03;11.90;;;8.27;;
10509;SDS011;5303;53.266;10.410;2024-01-30T10:51:29;12.07;;;8.77;;
10509;SDS011;5303;53.266;10.410;2024-01-30T10:53:57;11.93;;;8.67;;
10509;SDS011;5303;53.266;10.410;2024-01-30T10:56:23;11.63;;;8.27;;
10509;SDS011;5303;53.266;10.410;2024-01-30T10:58:52;12.33;;;8.27;;
10509;SDS011;5303;53.266;10.410;2024-01-30T11:01:19;9.90;;;8.27;;
10509;SDS011;5303;53.266;10.410;2024-01-30T11:03:47;12.40;;;8.93;;
10509;SDS011;5303;53.266;10.410;2024-01-30T11:06:24;12.17;;;8.47;;
10509;SDS011;5303;53.266;10.410;2024-01-30T11:09:00;11.83;;;8.67;;
10509;SDS011;5303;53.266;10.410;2024-01-30T11:11:28;10.23;;;7.33;;
10509;SDS011;5303;53.266;10.410;2024-01-30T11:13:53;10.43;;;8.20;;
10509;SDS011;5303;53.266;10.410;2024-01-30T11:16:19;11.67;;;8.63;;
10509;SDS011;5303;53.266;10.410;2024-01-30T11:18:49;10.67;;;7.93;;
10509;SDS011;5303;53.266;10.410;2024-01-30T11:21:16;9.87;;;8.10;;
10509;SDS011;5303;53.266;10.410;2024-01-30T11:23:42;10.30;;;7.60;;
10509;SDS011;5303;53.266;10.410;2024-01-30T11:26:09;10.93;;;7.63;;
10509;SDS011;5303;53.266;10.410;2024-01-30T11:28:35;10.03;;;7.83;;
10509;SDS011;5303;53.266;10.410;2024-01-30T11:31:03;14.57;;;7.97;;
10509;SDS011;5303;53.266;10.410;2024-01-30T11:33:29;8.90;;;7.83;;
10509;SDS011;5303;53.266;10.410;2024-01-30T11:35:56;8.70;;;7.80;;
10509;SDS011;5303;53.266;10.410;2024-01-30T11:38:26;11.37;;;7.60;;
10509;SDS011;5303;53.266;10.410;2024-01-30T11:40:53;10.33;;;7.67;;
10509;SDS011;5303;53.266;10.410;2024-01-30T11:43:19;8.90;;;7.23;;
10509;SDS011;5303;53.266;10.410;2024-01-30T11:45:44;7.00;;;6.30;;
10509;SDS011;5303;53.266;10.410;2024-01-30T11:48:11;11.40;;;7.23;;
10509;SDS011;5303;53.266;10.410;2024-01-30T11:50:37;9.57;;;6.90;;
10509;SDS011;5303;53.266;10.410;2024-01-30T11:53:04;12.90;;;8.67;;
10509;SDS011;5303;53.266;10.410;2024-01-30T11:55:30;14.03;;;9.70;;
10509;SDS011;5303;53.266;10.410;2024-01-30T11:57:56;13.97;;;8.57;;
10509;SDS011;5303;53.266;10.410;2024-01-30T12:00:22;10.30;;;7.93;;
10509;SDS011;5303;53.266;10.410;2024-01-30T12:02:54;9.77;;;7.47;;
10509;SDS011;5303;53.266;10.410;2024-01-30T12:05:25;12.67;;;8.93;;
10509;SDS011;5303;53.266;10.410;2024-01-30T12:07:51;10.03;;;7.70;;
10509;SDS011;5303;53.266;10.410;2024-01-30T12:10:17;11.07;;;7.50;;
10509;SDS011;5303;53.266;10.410;2024-01-30T12:12:45;9.90;;;7.37;;
10509;SDS011;5303;53.266;10.410;2024-01-30T12:15:12;10.37;;;7.13;;
10509;SDS011;5303;53.266;10.410;2024-01-30T12:17:38;8.93;;;7.10;;
10509;SDS011;5303;53.266;10.410;2024-01-30T12:20:10;10.50;;;6.97;;
10509;SDS011;5303;53.266;10.410;2024-01-30T12:22:38;9.17;;;6.77;;
10509;SDS011;5303;53.266;10.410;2024-01-30T12:25:05;9.33;;;6.53;;
10509;SDS011;5303;53.266;10.410;2024-01-30T12:27:33;8.90;;;7.33;;
10509;SDS011;5303;53.266;10.410;2024-01-30T12:29:58;8.57;;;6.60;;
10509;SDS011;5303;53.266;10.410;2024-01-30T12:32:24;8.80;;;6.70;;
10509;SDS011;5303;53.266;10.410;2024-01-30T12:34:49;10.57;;;6.93;;
10509;SDS011;5303;53.266;10.410;2024-01-30T12:37:14;6.87;;;6.17;;
10509;SDS011;5303;53.266;10.410;2024-01-30T12:39:44;7.20;;;6.07;;
10509;SDS011;5303;53.266;10.410;2024-01-30T12:42:10;7.30;;;6.57;;
10509;SDS011;5303;53.266;10.410;2024-01-30T12:44:35;8.40;;;6.27;;
10509;SDS011;5303;53.266;10.410;2024-01-30T12:47:02;8.83;;;6.40;;
10509;SDS011;5303;53.266;10.410;2024-01-30T12:49:28;8.67;;;6.33;;
10509;SDS011;5303;53.266;10.410;2024-01-30T12:51:54;8.47;;;6.87;;
10509;SDS011;5303;53.266;10.410;2024-01-30T12:54:19;9.90;;;6.20;;
10509;SDS011;5303;53.266;10.410;2024-01-30T12:56:44;10.03;;;6.50;;
10509;SDS011;5303;53.266;10.410;2024-01-30T12:59:10;8.17;;;6.00;;
10509;SDS011;5303;53.266;10.410;2024-01-30T13:01:35;9.60;;;6.70;;
10509;SDS011;5303;53.266;10.410;2024-01-30T13:04:01;7.17;;;6.33;;
10509;SDS011;5303;53.266;10.410;2024-01-30T13:06:26;8.13;;;6.30;;
10509;SDS011;5303;53.266;10.410;2024-01-30T13:08:51;7.20;;;5.60;;
10509;SDS011;5303;53.266;10.410;2024-01-30T13:11:17;8.03;;;6.53;;
10509;SDS011;5303;53.266;10.410;2024-01-30T13:13:42;8.87;;;7.17;;
10509;SDS011;5303;53.266;10.410;2024-01-30T13:16:08;10.63;;;6.67;;
10509;SDS011;5303;53.266;10.410;2024-01-30T13:18:33;10.90;;;6.60;;
10509;SDS011;5303;53.266;10.410;2024-01-30T13:20:58;7.07;;;6.37;;
10509;SDS011;5303;53.266;10.410;2024-01-30T13:23:24;9.73;;;6.80;;
10509;SDS011;5303;53.266;10.410;2024-01-30T13:25:49;9.30;;;6.30;;
10509;SDS011;5303;53.266;10.410;2024-01-30T13:28:14;9.77;;;6.70;;
10509;SDS011;5303;53.266;10.410;2024-01-30T13:30:39;8.13;;;6.40;;
10509;SDS011;5303;53.266;10.410;2024-01-30T13:33:05;11.73;;;7.07;;
10509;SDS011;5303;53.266;10.410;2024-01-30T13:35:30;7.07;;;6.20;;
10509;SDS011;5303;53.266;10.410;2024-01-30T13:37:55;9.83;;;6.30;;
10509;SDS011;5303;53.266;10.410;2024-01-30T13:40:20;9.43;;;6.47;;
10509;SDS011;5303;53.266;10.410;2024-01-30T13:42:47;10.90;;;6.80;;
10509;SDS011;5303;53.266;10.410;2024-01-30T13:45:12;8.47;;;5.80;;
10509;SDS011;5303;53.266;10.410;2024-01-30T13:47:38;10.30;;;7.27;;
10509;SDS011;5303;53.266;10.410;2024-01-30T13:50:04;11.20;;;6.57;;
10509;SDS011;5303;53.266;10.410;2024-01-30T13:52:30;10.13;;;6.77;;
10509;SDS011;5303;53.266;10.410;2024-01-30T13:54:55;11.20;;;6.67;;
10509;SDS011;5303;53.266;10.410;2024-01-30T13:57:21;11.37;;;7.33;;
10509;SDS011;5303;53.266;10.410;2024-01-30T13:59:46;12.47;;;7.27;;
10509;SDS011;5303;53.266;10.410;2024-01-30T14:02:11;9.70;;;6.70;;
10509;SDS011;5303;53.266;10.410;2024-01-30T14:04:37;10.80;;;6.63;;
10509;SDS011;5303;53.266;10.410;2024-01-30T14:07:02;8.43;;;6.43;;
10509;SDS011;5303;53.266;10.410;2024-01-30T14:09:28;9.47;;;6.40;;
10509;SDS011;5303;53.266;10.410;2024-01-30T14:11:54;7.97;;;6.50;;
10509;SDS011;5303;53.266;10.410;2024-01-30T14:14:19;8.33;;;6.30;;
10509;SDS011;5303;53.266;10.410;2024-01-30T14:16:45;6.73;;;6.03;;
10509;SDS011;5303;53.266;10.410;2024-01-30T14:19:10;8.93;;;6.60;;
10509;SDS011;5303;53.266;10.410;2024-01-30T14:21:35;11.53;;;6.73;;
10509;SDS011;5303;53.266;10.410;2024-01-30T14:24:02;10.50;;;6.77;;